Time;durP1;ratioP1;P1;durP2;ratioP2;P2;SDS_P1;SDS_P2;PMS_P1;PMS_P2;Temp;Humidity;BMP_temperature;BMP_pressure;BME280_temperature;BME280_humidity;BME280_pressure;Samples;Min_cycle;Max_cycle;Signal;HPM_P1;HPM_P2
2021/04/02 00:02:08;;;;;;;2.97;2.67;;;5.60;87.10;;;;;;5092276;28;20196;-84
2021/04/02 00:04:36;;;;;;;4.73;2.40;;;5.60;87.30;;;;;;5090602;28;20232;-83
2021/04/02 00:07:06;;;;;;;2.97;2.67;;;5.60;87.50;;;;;;5077892;28;20512;-84
2021/04/02 00:09:35;;;;;;;3.47;2.80;;;5.60;87.40;;;;;;5076414;28;20229;-84
2021/04/02 00:12:05;;;;;;;2.83;2.30;;;5.60;87.60;;;;;;5088742;28;20212;-80
2021/04/02 00:14:33;;;;;;;3.17;2.87;;;5.60;87.30;;;;;;5089709;28;21277;-81
2021/04/02 00:17:03;;;;;;;3.97;3.13;;;5.50;87.60;;;;;;5089691;28;20204;-81
2021/04/02 00:19:31;;;;;;;4.53;2.73;;;5.60;87.70;;;;;;5089462;28;20210;-84
2021/04/02 00:22:02;;;;;;;4.10;3.50;;;5.60;87.50;;;;;;5091959;28;20201;-82
2021/04/02 00:24:30;;;;;;;3.33;3.00;;;5.60;87.50;;;;;;5087290;28;20718;-82
2021/04/02 00:26:57;;;;;;;6.30;3.27;;;5.70;87.40;;;;;;5081268;28;20208;-83
2021/04/02 00:29:27;;;;;;;3.70;3.23;;;5.50;87.60;;;;;;5084593;28;20224;-81
2021/04/02 00:31:55;;;;;;;3.97;3.50;;;5.50;87.60;;;;;;5081598;28;20181;-83
2021/04/02 00:34:26;;;;;;;5.10;3.73;;;5.40;87.90;;;;;;5094232;28;20264;-82
2021/04/02 00:36:53;;;;;;;2.63;2.43;;;5.40;87.80;;;;;;5097947;28;20454;-85
2021/04/02 00:39:21;;;;;;;4.07;3.67;;;5.40;87.70;;;;;;5092838;28;20209;-84
2021/04/02 00:41:48;;;;;;;3.70;3.37;;;5.30;88.00;;;;;;5086548;28;20188;-82
2021/04/02 00:44:16;;;;;;;4.73;3.93;;;5.30;87.90;;;;;;5096366;28;20200;-85
2021/04/02 00:46:44;;;;;;;3.93;3.53;;;5.30;88.00;;;;;;5096829;28;20372;-82
2021/04/02 00:49:14;;;;;;;4.17;3.33;;;5.30;88.00;;;;;;5082555;28;20197;-83
2021/04/02 00:51:42;;;;;;;3.60;3.30;;;5.20;88.30;;;;;;5082312;28;20212;-82
2021/04/02 00:54:10;;;;;;;3.80;2.93;;;5.20;88.10;;;;;;5074908;28;20204;-82
2021/04/02 00:56:39;;;;;;;3.87;3.17;;;5.10;87.90;;;;;;5071499;28;20269;-81
2021/04/02 00:59:10;;;;;;;3.47;3.17;;;5.10;88.40;;;;;;5071167;28;20212;-81
2021/04/02 01:01:37;;;;;;;3.27;2.97;;;5.00;88.20;;;;;;5064548;28;20204;-80
2021/04/02 01:04:06;;;;;;;2.97;2.67;;;4.90;88.50;;;;;;5066516;28;20309;-83
2021/04/02 01:06:34;;;;;;;3.00;2.70;;;4.90;88.40;;;;;;5070526;28;20330;-84
2021/04/02 01:09:03;;;;;;;2.87;2.60;;;4.80;88.80;;;;;;5072747;28;20212;-82
2021/04/02 01:11:31;;;;;;;2.80;2.50;;;4.80;89.00;;;;;;5069704;28;20847;-83
2021/04/02 01:14:00;;;;;;;3.87;2.50;;;4.70;89.00;;;;;;5078693;28;20200;-82
2021/04/02 01:16:29;;;;;;;2.80;2.53;;;4.70;89.10;;;;;;5070430;28;20200;-83
2021/04/02 01:19:10;;;;;;;3.23;2.93;;;4.60;89.20;;;;;;5078061;28;20589;-83
2021/04/02 01:21:42;;;;;;;3.23;2.47;;;4.60;89.40;;;;;;5075118;28;20557;-83
2021/04/02 01:24:24;;;;;;;4.70;2.47;;;4.40;89.80;;;;;;5073159;28;20655;-83
2021/04/02 01:27:16;;;;;;;4.23;2.60;;;4.50;89.60;;;;;;5075567;28;20270;-83
2021/04/02 01:29:47;;;;;;;2.60;2.13;;;4.60;89.70;;;;;;5070004;28;20203;-81
2021/04/02 01:32:17;;;;;;;2.53;2.30;;;4.50;90.00;;;;;;5080124;28;20213;-82
2021/04/02 01:34:48;;;;;;;3.03;2.60;;;4.40;90.10;;;;;;5092364;28;20201;-81
2021/04/02 01:37:24;;;;;;;3.07;2.50;;;4.30;89.80;;;;;;5087109;28;20211;-84
2021/04/02 01:39:53;;;;;;;2.20;2.00;;;4.20;90.00;;;;;;5087810;28;20342;-81
2021/04/02 01:42:23;;;;;;;2.37;2.17;;;4.20;90.00;;;;;;5096173;28;20262;-83
2021/04/02 01:44:53;;;;;;;1.77;1.67;;;4.20;90.00;;;;;;5067756;28;20945;-81
2021/04/02 01:47:22;;;;;;;2.93;2.30;;;4.10;90.00;;;;;;5074762;28;20514;-84
2021/04/02 01:49:53;;;;;;;2.47;2.27;;;4.10;90.20;;;;;;5071469;28;20206;-83
2021/04/02 01:52:23;;;;;;;2.33;2.10;;;4.10;90.20;;;;;;5075308;28;20291;-83
2021/04/02 01:54:52;;;;;;;4.37;2.20;;;4.00;90.30;;;;;;5090153;28;20201;-83
2021/04/02 01:57:21;;;;;;;3.47;2.30;;;4.00;90.30;;;;;;5085261;28;20206;-83
2021/04/02 01:59:50;;;;;;;2.73;2.53;;;4.00;90.30;;;;;;5082811;28;20634;-83
2021/04/02 02:02:19;;;;;;;2.17;1.97;;;3.90;90.50;;;;;;5085461;28;20290;-82
2021/04/02 02:04:47;;;;;;;2.00;1.70;;;3.90;90.60;;;;;;5077131;28;20229;-83
2021/04/02 02:07:15;;;;;;;1.73;1.63;;;3.80;90.70;;;;;;5083891;28;20201;-83
2021/04/02 02:09:45;;;;;;;2.13;1.83;;;3.70;90.90;;;;;;5098018;28;20208;-83
2021/04/02 02:12:16;;;;;;;2.53;2.20;;;3.70;91.10;;;;;;5094413;28;20299;-83
2021/04/02 02:14:49;;;;;;;2.30;2.10;;;3.70;91.10;;;;;;5076961;28;20193;-83
2021/04/02 02:17:21;;;;;;;3.17;2.60;;;3.60;91.30;;;;;;5075876;28;20611;-82
2021/04/02 02:19:50;;;;;;;4.77;2.60;;;3.50;91.70;;;;;;5077532;28;20202;-83
2021/04/02 02:22:19;;;;;;;2.60;2.40;;;3.60;91.80;;;;;;5082545;28;20201;-82
2021/04/02 02:24:47;;;;;;;1.93;1.80;;;3.60;92.10;;;;;;5082256;28;20435;-82
2021/04/02 02:27:15;;;;;;;3.33;2.60;;;3.60;92.00;;;;;;5073995;28;20309;-83
2021/04/02 02:29:43;;;;;;;3.50;2.53;;;3.80;92.00;;;;;;5078960;28;20254;-84
2021/04/02 02:32:11;;;;;;;3.30;3.00;;;3.60;92.20;;;;;;5079471;28;20675;-83
2021/04/02 02:34:39;;;;;;;3.30;2.80;;;3.50;92.30;;;;;;5095452;28;20201;-82
2021/04/02 02:37:08;;;;;;;2.80;2.60;;;3.40;92.60;;;;;;5083042;28;20581;-82
2021/04/02 02:39:37;;;;;;;2.63;2.03;;;3.40;93.00;;;;;;5079700;28;20186;-83
2021/04/02 02:42:06;;;;;;;3.40;2.80;;;3.50;93.30;;;;;;5075327;28;20213;-81
2021/04/02 02:44:36;;;;;;;2.90;2.70;;;3.50;93.40;;;;;;5083319;28;20208;-83
2021/04/02 02:47:06;;;;;;;2.43;2.23;;;3.50;93.30;;;;;;5089296;28;20238;-83
2021/04/02 02:49:34;;;;;;;3.33;2.47;;;3.60;93.10;;;;;;5100256;28;20204;-84
2021/04/02 02:52:05;;;;;;;3.37;2.73;;;3.60;93.10;;;;;;5098933;28;20203;-82
2021/04/02 02:54:35;;;;;;;3.03;2.73;;;3.60;93.20;;;;;;5094939;28;20202;-83
2021/04/02 02:57:08;;;;;;;3.57;3.10;;;3.70;93.50;;;;;;5092920;28;20207;-83
2021/04/02 02:59:38;;;;;;;5.67;3.80;;;3.70;93.20;;;;;;5097459;28;20215;-84
2021/04/02 03:02:07;;;;;;;5.07;2.97;;;3.70;93.40;;;;;;5091135;28;20517;-84
2021/04/02 03:04:36;;;;;;;6.47;3.97;;;3.60;93.30;;;;;;5074480;28;20296;-83
2021/04/02 03:07:08;;;;;;;6.00;3.27;;;3.60;93.60;;;;;;5075258;28;20217;-83
2021/04/02 03:09:39;;;;;;;4.17;3.77;;;3.50;93.90;;;;;;5073771;28;20212;-83
2021/04/02 03:12:09;;;;;;;3.17;2.83;;;3.40;94.50;;;;;;5074076;28;20213;-82
2021/04/02 03:14:39;;;;;;;5.00;3.40;;;3.40;95.00;;;;;;5077011;28;20251;-83
2021/04/02 03:17:06;;;;;;;4.63;4.17;;;3.30;95.30;;;;;;5080357;28;20201;-83
2021/04/02 03:19:36;;;;;;;5.57;4.27;;;3.30;95.50;;;;;;5074170;28;20313;-83
2021/04/02 03:22:08;;;;;;;5.67;4.50;;;3.30;95.70;;;;;;5066521;28;20441;-82
2021/04/02 03:24:38;;;;;;;4.20;3.80;;;3.20;96.00;;;;;;5075801;28;20208;-83
2021/04/02 03:27:08;;;;;;;4.23;3.83;;;3.20;96.20;;;;;;5078908;28;20375;-83
2021/04/02 03:29:35;;;;;;;5.90;4.17;;;3.20;96.50;;;;;;5080411;28;20229;-83
2021/04/02 03:32:08;;;;;;;4.33;3.93;;;3.20;96.80;;;;;;5076100;28;20239;-81
2021/04/02 03:34:37;;;;;;;4.87;3.97;;;3.20;96.70;;;;;;5091018;28;20203;-82
2021/04/02 03:37:09;;;;;;;5.17;4.40;;;3.20;96.90;;;;;;5092454;28;20259;-83
2021/04/02 03:39:42;;;;;;;4.23;3.83;;;3.10;97.40;;;;;;5091468;28;20198;-81
2021/04/02 03:42:12;;;;;;;4.67;4.07;;;3.10;97.50;;;;;;5070310;28;20200;-83
2021/04/02 03:44:42;;;;;;;6.03;4.30;;;3.10;97.60;;;;;;5072768;28;20202;-83
2021/04/02 03:47:13;;;;;;;4.73;3.77;;;3.20;97.70;;;;;;5070221;28;20374;-81
2021/04/02 03:49:43;;;;;;;6.93;4.70;;;3.20;97.60;;;;;;5076886;28;20206;-83
2021/04/02 03:52:16;;;;;;;5.37;4.70;;;3.20;97.20;;;;;;5070901;28;20575;-83
2021/04/02 03:54:48;;;;;;;6.07;4.50;;;3.30;97.10;;;;;;5080068;28;20205;-84
2021/04/02 03:57:22;;;;;;;5.33;3.80;;;3.20;96.70;;;;;;5086489;28;20205;-82
2021/04/02 03:59:54;;;;;;;6.20;5.07;;;3.30;96.70;;;;;;5081721;28;20236;-82
2021/04/02 04:02:22;;;;;;;5.97;5.17;;;3.20;96.20;;;;;;5073991;28;20208;-84
2021/04/02 04:04:52;;;;;;;5.43;4.93;;;3.20;96.50;;;;;;5070497;28;20615;-83
2021/04/02 04:07:22;;;;;;;5.90;4.93;;;3.20;96.60;;;;;;5072052;28;20322;-82
2021/04/02 04:09:52;;;;;;;5.93;5.33;;;3.20;96.80;;;;;;5073756;28;20201;-83
2021/04/02 04:12:23;;;;;;;6.37;5.73;;;3.10;97.00;;;;;;5070397;28;20242;-83
2021/04/02 04:14:53;;;;;;;7.83;5.27;;;3.10;97.00;;;;;;5095292;28;20173;-81
2021/04/02 04:17:22;;;;;;;7.43;5.93;;;3.20;97.30;;;;;;5081033;28;20742;-83
2021/04/02 04:19:52;;;;;;;7.40;6.27;;;3.00;97.60;;;;;;5085115;28;20201;-81
2021/04/02 04:22:25;;;;;;;7.87;5.77;;;2.90;97.70;;;;;;5088976;28;20201;-82
2021/04/02 04:24:55;;;;;;;7.17;6.20;;;2.90;98.10;;;;;;5074164;28;20248;-83
2021/04/02 04:27:25;;;;;;;7.23;6.00;;;2.80;98.30;;;;;;5070377;28;20294;-84
2021/04/02 04:29:55;;;;;;;7.27;6.33;;;2.90;98.70;;;;;;5071957;28;20213;-82
2021/04/02 04:32:27;;;;;;;7.10;6.23;;;2.80;98.90;;;;;;5070929;28;20273;-83
2021/04/02 04:34:57;;;;;;;6.50;5.00;;;2.80;99.20;;;;;;5012794;28;20366;-82
2021/04/02 04:37:28;;;;;;;7.10;6.03;;;2.90;99.10;;;;;;4999811;28;20595;-85
2021/04/02 04:39:57;;;;;;;8.80;6.47;;;2.80;98.90;;;;;;4998454;28;20235;-85
2021/04/02 04:42:27;;;;;;;6.83;6.10;;;2.80;98.90;;;;;;4996921;28;21206;-83
2021/04/02 04:44:56;;;;;;;7.73;6.40;;;2.80;99.40;;;;;;5006690;28;20645;-81
2021/04/02 04:47:24;;;;;;;8.10;6.73;;;2.80;99.50;;;;;;5085210;28;20208;-84
2021/04/02 04:49:51;;;;;;;7.17;6.17;;;2.80;99.70;;;;;;5069995;28;20216;-82
2021/04/02 04:52:22;;;;;;;11.37;6.80;;;2.80;99.90;;;;;;5065758;28;20197;-82
2021/04/02 04:54:53;;;;;;;8.37;6.60;;;2.80;99.90;;;;;;5069144;28;20223;-84
2021/04/02 04:57:22;;;;;;;8.80;6.33;;;2.80;99.90;;;;;;5070585;28;20281;-82
2021/04/02 04:59:51;;;;;;;7.47;6.63;;;3.00;99.90;;;;;;5088639;28;20192;-83
2021/04/02 05:02:20;;;;;;;7.57;6.30;;;2.90;99.80;;;;;;5090841;28;20213;-85
2021/04/02 05:04:51;;;;;;;6.43;5.73;;;3.00;99.40;;;;;;5087377;28;20423;-84
2021/04/02 05:07:21;;;;;;;7.07;6.30;;;3.10;98.80;;;;;;5070348;28;20305;-85
2021/04/02 05:09:52;;;;;;;8.20;5.93;;;3.20;98.80;;;;;;5069788;28;20213;-83
2021/04/02 05:12:21;;;;;;;8.87;6.23;;;3.30;98.20;;;;;;5076411;28;20210;-83
2021/04/02 05:14:49;;;;;;;6.60;5.90;;;3.40;97.00;;;;;;5091919;28;20204;-84
2021/04/02 05:17:19;;;;;;;8.97;7.00;;;3.30;96.70;;;;;;5076057;28;20213;-82
2021/04/02 05:19:49;;;;;;;7.43;6.43;;;3.40;96.40;;;;;;5077595;28;20228;-83
2021/04/02 05:22:18;;;;;;;8.60;6.50;;;3.50;96.50;;;;;;5084077;28;20191;-84
2021/04/02 05:24:51;;;;;;;9.57;7.10;;;3.50;95.90;;;;;;5088204;28;20210;-83
2021/04/02 05:27:20;;;;;;;9.50;7.43;;;3.60;95.10;;;;;;5070893;28;20225;-83
2021/04/02 05:29:47;;;;;;;9.37;8.10;;;3.70;94.90;;;;;;5079273;28;20193;-81
2021/04/02 05:32:15;;;;;;;10.10;7.77;;;3.60;95.10;;;;;;5081498;28;20582;-82
2021/04/02 05:34:43;;;;;;;12.27;8.37;;;3.70;95.30;;;;;;5083853;28;20527;-83
2021/04/02 05:37:11;;;;;;;10.27;7.83;;;3.80;94.80;;;;;;5090930;28;20614;-83
2021/04/02 05:39:39;;;;;;;15.00;9.30;;;3.90;94.40;;;;;;5075691;28;20852;-81
2021/04/02 05:42:08;;;;;;;14.30;11.67;;;3.90;94.20;;;;;;5081404;28;20209;-83
2021/04/02 05:44:37;;;;;;;28.23;20.40;;;3.90;93.80;;;;;;5074193;28;20199;-81
2021/04/02 05:47:06;;;;;;;22.13;14.37;;;4.00;93.50;;;;;;5071421;28;20823;-83
2021/04/02 05:49:35;;;;;;;33.03;25.03;;;3.80;93.00;;;;;;5076439;28;20206;-83
2021/04/02 05:52:04;;;;;;;29.33;19.93;;;3.90;93.70;;;;;;5079305;28;20222;-81
2021/04/02 05:54:36;;;;;;;31.70;23.20;;;3.80;93.30;;;;;;5080465;28;20665;-84
2021/04/02 05:57:04;;;;;;;34.37;23.97;;;3.70;93.70;;;;;;5076547;28;20209;-83
2021/04/02 05:59:33;;;;;;;35.23;22.83;;;3.70;94.20;;;;;;5071949;28;20207;-82
2021/04/02 06:02:02;;;;;;;34.30;24.37;;;3.80;94.80;;;;;;5073456;28;20199;-82
2021/04/02 06:04:31;;;;;;;32.23;24.67;;;3.90;94.70;;;;;;5071705;28;20604;-81
2021/04/02 06:06:59;;;;;;;42.03;26.57;;;4.10;94.70;;;;;;5076319;28;20230;-84
2021/04/02 06:09:28;;;;;;;33.13;22.50;;;4.20;93.50;;;;;;5081055;28;20203;-83
2021/04/02 06:11:56;;;;;;;31.03;21.23;;;4.30;92.60;;;;;;5090372;28;20211;-84
2021/04/02 06:14:24;;;;;;;31.17;22.67;;;4.30;92.20;;;;;;5088057;28;20200;-84
2021/04/02 06:16:53;;;;;;;30.90;21.10;;;4.40;92.90;;;;;;5094689;28;20195;-81
2021/04/02 06:19:23;;;;;;;31.77;22.00;;;4.50;92.20;;;;;;5095199;28;20205;-82
2021/04/02 06:21:53;;;;;;;30.97;21.57;;;4.60;92.40;;;;;;5089285;28;20580;-83
2021/04/02 06:24:37;;;;;;;35.23;22.83;;;4.60;91.10;;;;;;5095838;28;20229;-83
2021/04/02 06:27:06;;;;;;;32.57;22.93;;;4.80;91.40;;;;;;5094508;28;20204;-83
2021/04/02 06:29:39;;;;;;;37.67;26.37;;;5.00;91.10;;;;;;5091588;28;20193;-84
2021/04/02 06:32:09;;;;;;;34.87;23.77;;;5.10;90.60;;;;;;5099386;28;20228;-86
2021/04/02 06:34:45;;;;;;;30.73;22.67;;;5.20;90.10;;;;;;5086874;28;20630;-84
2021/04/02 06:37:14;;;;;;;26.90;16.70;;;5.20;89.80;;;;;;5092446;28;20200;-84
2021/04/02 06:39:56;;;;;;;31.30;23.23;;;5.10;89.90;;;;;;5087296;28;20193;-83
2021/04/02 06:42:30;;;;;;;17.63;12.30;;;5.10;90.10;;;;;;5089494;28;20204;-83
2021/04/02 06:45:01;;;;;;;33.57;23.53;;;4.80;89.80;;;;;;5091239;28;20188;-85
2021/04/02 06:47:35;;;;;;;33.00;22.87;;;4.50;91.10;;;;;;5096107;28;20228;-84
2021/04/02 06:50:20;;;;;;;32.00;22.40;;;4.50;91.60;;;;;;5099240;28;20194;-84
2021/04/02 06:52:51;;;;;;;33.90;23.90;;;4.60;91.60;;;;;;5070985;28;20208;-83
2021/04/02 06:55:20;;;;;;;34.97;25.43;;;4.80;91.40;;;;;;5085084;28;20214;-82
2021/04/02 06:57:49;;;;;;;35.43;24.07;;;4.90;90.20;;;;;;5089250;28;20197;-82
2021/04/02 07:00:21;;;;;;;34.37;24.37;;;4.90;90.10;;;;;;5097456;28;20195;-83
2021/04/02 07:02:51;;;;;;;33.87;23.70;;;5.00;90.00;;;;;;5071371;28;20197;-87
2021/04/02 07:05:23;;;;;;;34.23;24.93;;;5.10;89.70;;;;;;5084702;28;20496;-81
2021/04/02 07:07:54;;;;;;;21.30;16.33;;;5.20;89.80;;;;;;5087650;28;20202;-83
2021/04/02 07:10:23;;;;;;;18.33;14.10;;;5.10;88.50;;;;;;5085576;28;20197;-83
2021/04/02 07:12:59;;;;;;;22.13;16.33;;;5.10;88.50;;;;;;5082418;28;20216;-82
2021/04/02 07:15:31;;;;;;;21.17;16.13;;;5.20;89.10;;;;;;5083864;28;20206;-84
2021/04/02 07:18:03;;;;;;;18.73;14.67;;;5.20;88.10;;;;;;5074851;28;20198;-84
2021/04/02 07:20:32;;;;;;;16.33;11.97;;;5.30;88.10;;;;;;5079541;28;20851;-83
2021/04/02 07:23:00;;;;;;;17.13;12.47;;;5.30;87.50;;;;;;5071658;28;20210;-81
2021/04/02 07:25:29;;;;;;;16.70;12.50;;;5.50;87.90;;;;;;5072548;28;20252;-84
2021/04/02 07:27:57;;;;;;;15.17;11.77;;;5.40;88.00;;;;;;5067288;28;20991;-82
2021/04/02 07:30:31;;;;;;;14.87;11.13;;;5.50;87.70;;;;;;5072953;28;20305;-83
2021/04/02 07:33:02;;;;;;;14.37;11.83;;;5.70;87.30;;;;;;5070522;28;20954;-84
2021/04/02 07:35:30;;;;;;;13.57;10.00;;;5.90;87.00;;;;;;5072752;28;20737;-84
2021/04/02 07:38:00;;;;;;;13.30;9.57;;;6.00;86.40;;;;;;5076223;28;20223;-83
2021/04/02 07:40:30;;;;;;;11.17;9.40;;;6.10;86.30;;;;;;5076416;28;20202;-85
2021/04/02 07:43:01;;;;;;;12.63;9.90;;;6.20;86.50;;;;;;5068805;28;20209;-84
2021/04/02 07:45:33;;;;;;;11.13;8.90;;;6.30;85.40;;;;;;5070624;28;20296;-83
2021/04/02 07:48:20;;;;;;;13.20;9.97;;;6.30;85.10;;;;;;5072086;28;20197;-83
2021/04/02 07:50:53;;;;;;;15.07;10.23;;;6.30;85.20;;;;;;5076541;28;20209;-83
2021/04/02 07:53:43;;;;;;;13.47;10.57;;;6.30;84.80;;;;;;5088718;28;20189;-85
2021/04/02 07:56:13;;;;;;;12.30;9.73;;;6.20;84.70;;;;;;5088125;28;20200;-84
2021/04/02 07:58:46;;;;;;;12.93;8.90;;;6.20;84.80;;;;;;5094266;28;20207;-83
2021/04/02 08:01:18;;;;;;;12.97;9.07;;;6.30;84.70;;;;;;5074496;28;20205;-84
2021/04/02 08:03:49;;;;;;;11.37;9.07;;;6.50;84.80;;;;;;5080725;28;20194;-84
2021/04/02 08:06:32;;;;;;;11.40;8.70;;;6.60;84.50;;;;;;5085501;28;20221;-84
2021/04/02 08:09:01;;;;;;;11.83;9.00;;;6.70;83.40;;;;;;5081568;28;20288;-84
2021/04/02 08:11:32;;;;;;;10.90;8.50;;;6.80;83.60;;;;;;5074732;28;20602;-83
2021/04/02 08:14:05;;;;;;;9.03;8.00;;;6.80;83.60;;;;;;5081872;28;20204;-83
2021/04/02 08:16:47;;;;;;;8.50;7.70;;;6.80;83.50;;;;;;5081148;28;20516;-85
2021/04/02 08:19:18;;;;;;;9.73;7.33;;;6.90;84.30;;;;;;5080882;28;20266;-83
2021/04/02 08:21:50;;;;;;;10.23;6.47;;;7.00;83.40;;;;;;5078014;28;20214;-83
2021/04/02 08:24:20;;;;;;;7.97;5.70;;;7.00;82.80;;;;;;5073487;28;20520;-82
2021/04/02 08:26:51;;;;;;;8.00;6.27;;;7.00;82.40;;;;;;5071790;28;20260;-84
2021/04/02 08:29:21;;;;;;;7.07;5.67;;;7.00;82.50;;;;;;5073882;28;20572;-81
2021/04/02 08:31:52;;;;;;;7.13;5.60;;;7.00;82.50;;;;;;5074466;28;20211;-81
2021/04/02 08:34:23;;;;;;;5.80;4.97;;;7.00;82.70;;;;;;5087327;28;20177;-85
2021/04/02 08:36:52;;;;;;;7.07;5.40;;;7.10;82.40;;;;;;5092735;28;20179;-84
2021/04/02 08:39:23;;;;;;;5.33;4.83;;;7.20;81.40;;;;;;5085427;28;20212;-82
2021/04/02 08:41:56;;;;;;;6.20;5.10;;;7.20;81.70;;;;;;5072331;28;20215;-82
2021/04/02 08:44:29;;;;;;;8.53;5.33;;;7.30;81.90;;;;;;5075860;28;20206;-80
2021/04/02 08:46:59;;;;;;;5.00;4.50;;;7.40;81.60;;;;;;5083141;28;20211;-83
2021/04/02 08:49:35;;;;;;;4.93;4.23;;;7.60;81.00;;;;;;5088657;28;20233;-82
2021/04/02 08:52:08;;;;;;;4.00;3.63;;;7.70;80.60;;;;;;5090046;28;20197;-81
2021/04/02 08:54:36;;;;;;;4.37;3.40;;;7.80;79.90;;;;;;5089461;28;20257;-83
2021/04/02 08:57:06;;;;;;;4.77;3.30;;;7.70;79.40;;;;;;5079925;28;20201;-83
2021/04/02 08:59:34;;;;;;;3.77;3.03;;;7.60;79.40;;;;;;5075942;28;20215;-83
2021/04/02 09:02:05;;;;;;;4.27;3.80;;;7.50;79.50;;;;;;5071098;28;20222;-81
2021/04/02 09:04:34;;;;;;;4.87;3.60;;;7.60;80.00;;;;;;5081457;28;20191;-83
2021/04/02 09:07:02;;;;;;;4.43;4.03;;;7.60;79.90;;;;;;5079683;28;20265;-80
2021/04/02 09:09:31;;;;;;;4.27;3.87;;;7.70;80.30;;;;;;5087094;28;20204;-82
2021/04/02 09:12:06;;;;;;;3.90;3.60;;;7.80;80.20;;;;;;5077749;28;20626;-82
2021/04/02 09:14:34;;;;;;;5.30;3.40;;;7.90;79.20;;;;;;5074493;28;20206;-83
2021/04/02 09:17:02;;;;;;;4.13;3.47;;;8.00;78.90;;;;;;5074520;28;20218;-84
2021/04/02 09:19:29;;;;;;;3.50;3.20;;;7.90;78.70;;;;;;5077094;28;20196;-81
2021/04/02 09:21:59;;;;;;;3.60;3.30;;;7.80;78.80;;;;;;5090867;28;20218;-83
2021/04/02 09:24:26;;;;;;;3.17;2.90;;;7.80;78.70;;;;;;5090583;28;20188;-82
2021/04/02 09:26:54;;;;;;;2.83;2.63;;;7.90;77.90;;;;;;5084020;28;20220;-81
2021/04/02 09:29:22;;;;;;;4.13;2.80;;;7.90;76.70;;;;;;5084941;28;20215;-83
2021/04/02 09:31:55;;;;;;;2.87;2.67;;;7.90;76.60;;;;;;5073558;28;20195;-83
2021/04/02 09:34:23;;;;;;;3.13;2.27;;;7.80;76.10;;;;;;5068987;28;20209;-81
2021/04/02 09:36:52;;;;;;;2.80;2.60;;;7.80;75.30;;;;;;5082654;28;20200;-84
2021/04/02 09:39:25;;;;;;;2.80;2.60;;;7.80;75.90;;;;;;5082412;28;20222;-83
2021/04/02 09:41:56;;;;;;;2.60;2.40;;;7.90;75.80;;;;;;5092816;28;20217;-83
2021/04/02 09:44:25;;;;;;;2.77;2.00;;;8.00;75.70;;;;;;5094161;28;20226;-82
2021/04/02 09:47:02;;;;;;;3.13;2.30;;;8.10;74.60;;;;;;5097038;28;20219;-80
2021/04/02 09:49:31;;;;;;;3.23;2.70;;;8.10;74.10;;;;;;5085953;28;20603;-84
2021/04/02 09:52:01;;;;;;;3.20;2.47;;;8.10;74.30;;;;;;5088487;28;20195;-82
2021/04/02 09:54:31;;;;;;;3.17;2.83;;;8.20;73.60;;;;;;5085998;28;20209;-80
2021/04/02 09:57:01;;;;;;;2.80;2.60;;;8.10;73.70;;;;;;5077574;28;20241;-83
2021/04/02 09:59:29;;;;;;;3.30;2.87;;;8.20;73.60;;;;;;5074150;28;20203;-83
2021/04/02 10:01:58;;;;;;;3.00;2.10;;;8.30;73.50;;;;;;5080079;28;20204;-83
2021/04/02 10:04:26;;;;;;;2.77;2.10;;;8.50;72.40;;;;;;5081041;28;20257;-81
2021/04/02 10:06:54;;;;;;;2.13;1.90;;;8.50;71.20;;;;;;5083550;28;20729;-82
2021/04/02 10:09:22;;;;;;;3.43;2.10;;;8.60;70.70;;;;;;5086695;28;20213;-83
2021/04/02 10:11:51;;;;;;;2.47;2.00;;;8.50;70.60;;;;;;5090367;28;20204;-81
2021/04/02 10:14:20;;;;;;;2.00;1.90;;;8.50;70.50;;;;;;5089376;28;20729;-83
2021/04/02 10:16:48;;;;;;;2.10;1.90;;;8.60;69.20;;;;;;5076518;28;20264;-82
2021/04/02 10:19:16;;;;;;;2.80;1.90;;;8.60;69.30;;;;;;5076412;28;20204;-81
2021/04/02 10:21:44;;;;;;;2.63;2.00;;;8.60;68.50;;;;;;5077488;28;20488;-80
2021/04/02 10:24:12;;;;;;;3.03;2.23;;;8.60;67.80;;;;;;5077980;28;20216;-82
2021/04/02 10:26:43;;;;;;;2.50;2.30;;;8.50;68.30;;;;;;5086902;28;20239;-79
2021/04/02 10:29:11;;;;;;;2.37;2.13;;;8.40;68.90;;;;;;5080918;28;20231;-80
2021/04/02 10:31:39;;;;;;;2.23;2.00;;;8.50;68.70;;;;;;5077591;28;20205;-80
2021/04/02 10:34:07;;;;;;;2.00;1.90;;;8.70;68.10;;;;;;5080235;28;20675;-82
2021/04/02 10:36:34;;;;;;;1.87;1.67;;;8.80;67.60;;;;;;5091776;28;20204;-81
2021/04/02 10:39:09;;;;;;;3.57;2.30;;;8.80;66.20;;;;;;5082355;28;20195;-84
2021/04/02 10:41:37;;;;;;;1.93;1.83;;;8.80;66.20;;;;;;5085208;28;20485;-83
2021/04/02 10:44:08;;;;;;;2.30;2.10;;;8.90;65.70;;;;;;5082084;28;20659;-80
2021/04/02 10:46:38;;;;;;;2.13;1.93;;;9.00;64.80;;;;;;5084585;28;20255;-81
2021/04/02 10:49:08;;;;;;;2.20;2.00;;;9.00;64.30;;;;;;5098253;28;20208;-81
2021/04/02 10:51:39;;;;;;;2.50;2.30;;;8.90;64.50;;;;;;5093675;28;20193;-82
2021/04/02 10:54:08;;;;;;;2.40;2.20;;;9.00;63.70;;;;;;5083915;28;20426;-81
2021/04/02 10:56:38;;;;;;;2.77;2.20;;;9.10;63.30;;;;;;5077302;28;20988;-80
2021/04/02 10:59:06;;;;;;;4.87;2.33;;;9.00;62.90;;;;;;5080954;28;20254;-81
2021/04/02 11:01:34;;;;;;;2.33;2.13;;;9.10;62.50;;;;;;5081207;28;20208;-80
2021/04/02 11:04:03;;;;;;;2.30;1.87;;;9.10;63.50;;;;;;5084047;28;20204;-83
2021/04/02 11:06:32;;;;;;;3.30;2.10;;;9.20;63.30;;;;;;5082703;28;20238;-84
2021/04/02 11:09:01;;;;;;;5.03;2.20;;;9.20;62.70;;;;;;5084147;28;20205;-84
2021/04/02 11:11:34;;;;;;;2.50;1.80;;;9.20;62.60;;;;;;5081902;28;20209;-80
2021/04/02 11:14:02;;;;;;;2.50;2.30;;;9.30;59.10;;;;;;5081773;28;20204;-82
2021/04/02 11:16:30;;;;;;;2.40;2.20;;;9.40;58.70;;;;;;5076500;28;20203;-81
2021/04/02 11:18:58;;;;;;;3.97;2.73;;;9.40;58.80;;;;;;5083676;28;20231;-82
2021/04/02 11:21:29;;;;;;;2.43;2.00;;;9.50;60.30;;;;;;5079064;28;20224;-83
2021/04/02 11:24:00;;;;;;;2.50;1.90;;;9.50;55.40;;;;;;5084498;28;20213;-82
2021/04/02 11:26:29;;;;;;;3.17;2.20;;;9.50;55.00;;;;;;5086274;28;20224;-81
2021/04/02 11:28:57;;;;;;;2.23;2.03;;;9.60;59.60;;;;;;5081475;28;20193;-80
2021/04/02 11:31:26;;;;;;;2.70;2.20;;;9.60;59.20;;;;;;5086307;28;20256;-83
2021/04/02 11:33:53;;;;;;;2.10;1.90;;;9.60;57.50;;;;;;5086648;28;21104;-82
2021/04/02 11:36:21;;;;;;;2.17;1.97;;;9.70;56.50;;;;;;5097741;28;20196;-82
2021/04/02 11:38:50;;;;;;;2.40;2.20;;;9.80;57.30;;;;;;5080843;28;20189;-83
2021/04/02 11:41:18;;;;;;;2.70;2.20;;;9.70;56.90;;;;;;5079110;28;20201;-82
2021/04/02 11:43:45;;;;;;;2.50;2.30;;;9.60;57.40;;;;;;5075935;28;20232;-80
2021/04/02 11:46:13;;;;;;;5.67;2.10;;;9.60;58.40;;;;;;5079766;28;20197;-83
2021/04/02 11:48:40;;;;;;;2.60;2.40;;;9.60;57.80;;;;;;5081254;28;20215;-83
2021/04/02 11:51:08;;;;;;;2.63;2.40;;;9.60;59.00;;;;;;5094510;28;20205;-83
2021/04/02 11:53:36;;;;;;;3.17;2.33;;;9.80;58.00;;;;;;5092063;28;20227;-80
2021/04/02 11:56:06;;;;;;;2.57;2.37;;;9.80;58.50;;;;;;5079766;28;20280;-81
2021/04/02 11:58:35;;;;;;;2.83;2.10;;;9.80;58.10;;;;;;5092091;28;21140;-81
2021/04/02 12:01:03;;;;;;;2.40;2.20;;;9.90;55.80;;;;;;5079865;28;20198;-82
2021/04/02 12:03:32;;;;;;;2.30;2.10;;;9.80;55.10;;;;;;5076776;28;20262;-83
2021/04/02 12:06:00;;;;;;;3.30;2.17;;;9.80;54.20;;;;;;5077517;28;20216;-81
2021/04/02 12:08:28;;;;;;;1.90;1.80;;;9.70;54.90;;;;;;5077824;28;20230;-80
2021/04/02 12:10:56;;;;;;;2.17;1.90;;;9.80;55.00;;;;;;5073944;28;20217;-82
2021/04/02 12:13:25;;;;;;;3.17;2.50;;;9.80;54.60;;;;;;5084177;28;20204;-81
2021/04/02 12:15:54;;;;;;;2.37;2.00;;;10.00;53.20;;;;;;5096737;28;20193;-81
2021/04/02 12:18:23;;;;;;;3.27;1.90;;;10.10;50.80;;;;;;5096097;28;20197;-82
2021/04/02 12:20:51;;;;;;;3.20;1.90;;;10.10;47.50;;;;;;5084505;28;20205;-81
2021/04/02 12:23:19;;;;;;;4.13;2.80;;;10.00;47.90;;;;;;5080472;28;20198;-81
2021/04/02 12:25:47;;;;;;;3.30;2.20;;;10.00;51.30;;;;;;5075828;28;20209;-80
2021/04/02 12:28:16;;;;;;;4.20;2.40;;;10.00;51.80;;;;;;5074342;28;20403;-83
2021/04/02 12:30:45;;;;;;;3.50;2.70;;;10.00;52.10;;;;;;5075872;28;20235;-82
2021/04/02 12:33:13;;;;;;;3.83;2.30;;;10.00;52.90;;;;;;5084164;28;20208;-83
2021/04/02 12:35:42;;;;;;;3.83;1.90;;;10.10;52.20;;;;;;5090324;28;20242;-83
2021/04/02 12:38:10;;;;;;;2.50;2.20;;;10.10;51.30;;;;;;5081320;28;20215;-84
2021/04/02 12:40:39;;;;;;;2.50;2.30;;;10.20;49.80;;;;;;5078509;28;20254;-82
2021/04/02 12:43:06;;;;;;;3.30;2.50;;;10.30;49.10;;;;;;5082772;28;20272;-81
2021/04/02 12:45:35;;;;;;;2.70;2.50;;;10.30;51.90;;;;;;5081489;28;20682;-84
2021/04/02 12:48:08;;;;;;;2.57;2.37;;;10.30;50.00;;;;;;5077521;28;20348;-83
2021/04/02 12:50:37;;;;;;;3.13;2.87;;;10.40;52.30;;;;;;5081007;28;20193;-82
2021/04/02 12:53:04;;;;;;;4.03;2.87;;;10.50;52.60;;;;;;5075769;28;20435;-84
2021/04/02 12:55:34;;;;;;;4.37;3.00;;;10.50;53.50;;;;;;5077306;28;20210;-81
2021/04/02 12:58:03;;;;;;;3.90;2.63;;;10.60;54.00;;;;;;5076077;28;20308;-81
2021/04/02 13:00:31;;;;;;;3.53;3.23;;;10.60;51.90;;;;;;5081750;28;20419;-81
2021/04/02 13:02:59;;;;;;;3.57;2.70;;;10.60;51.70;;;;;;5084838;28;20212;-81
2021/04/02 13:05:28;;;;;;;2.50;2.30;;;10.60;51.70;;;;;;5098014;28;20204;-83
2021/04/02 13:07:56;;;;;;;3.43;3.00;;;10.60;52.40;;;;;;5100292;28;20220;-82